sensor_id;sensor_type;location;lat;lon;timestamp;P1;durP1;ratioP1;P2;durP2;ratioP2
13981;SDS011;7065;50.880;5.502;2023-03-25T00:00:18;4.30;;;1.42;;
13981;SDS011;7065;50.880;5.502;2023-03-25T00:02:49;4.30;;;1.15;;
13981;SDS011;7065;50.880;5.502;2023-03-25T00:05:17;4.13;;;1.20;;
13981;SDS011;7065;50.880;5.502;2023-03-25T00:07:44;4.18;;;1.15;;
13981;SDS011;7065;50.880;5.502;2023-03-25T00:10:12;6.43;;;1.52;;
13981;SDS011;7065;50.880;5.502;2023-03-25T00:12:39;3.88;;;1.23;;
13981;SDS011;7065;50.880;5.502;2023-03-25T00:15:07;3.08;;;1.08;;
13981;SDS011;7065;50.880;5.502;2023-03-25T00:17:35;6.35;;;1.35;;
13981;SDS011;7065;50.880;5.502;2023-03-25T00:20:03;4.40;;;1.08;;
13981;SDS011;7065;50.880;5.502;2023-03-25T00:22:32;4.28;;;1.13;;
13981;SDS011;7065;50.880;5.502;2023-03-25T00:25:04;3.10;;;1.08;;
13981;SDS011;7065;50.880;5.502;2023-03-25T00:27:43;2.72;;;0.98;;
13981;SDS011;7065;50.880;5.502;2023-03-25T00:30:10;5.32;;;1.73;;
13981;SDS011;7065;50.880;5.502;2023-03-25T00:32:37;1.75;;;0.90;;
13981;SDS011;7065;50.880;5.502;2023-03-25T00:35:03;1.67;;;1.05;;
13981;SDS011;7065;50.880;5.502;2023-03-25T00:37:30;3.30;;;1.20;;
13981;SDS011;7065;50.880;5.502;2023-03-25T00:39:56;3.65;;;1.10;;
13981;SDS011;7065;50.880;5.502;2023-03-25T00:42:22;3.17;;;0.95;;
13981;SDS011;7065;50.880;5.502;2023-03-25T00:44:50;2.33;;;0.90;;
13981;SDS011;7065;50.880;5.502;2023-03-25T00:47:17;2.50;;;0.85;;
13981;SDS011;7065;50.880;5.502;2023-03-25T00:49:44;1.75;;;0.82;;
13981;SDS011;7065;50.880;5.502;2023-03-25T00:52:10;0.98;;;0.77;;
13981;SDS011;7065;50.880;5.502;2023-03-25T00:54:37;1.85;;;0.70;;
13981;SDS011;7065;50.880;5.502;2023-03-25T00:57:03;2.20;;;0.90;;
13981;SDS011;7065;50.880;5.502;2023-03-25T00:59:29;2.53;;;1.00;;
13981;SDS011;7065;50.880;5.502;2023-03-25T01:01:54;2.58;;;0.90;;
13981;SDS011;7065;50.880;5.502;2023-03-25T01:04:21;2.17;;;1.00;;
13981;SDS011;7065;50.880;5.502;2023-03-25T01:06:47;3.63;;;1.20;;
13981;SDS011;7065;50.880;5.502;2023-03-25T01:09:16;2.20;;;1.00;;
13981;SDS011;7065;50.880;5.502;2023-03-25T01:11:43;3.50;;;0.90;;
13981;SDS011;7065;50.880;5.502;2023-03-25T01:14:11;1.10;;;0.98;;
13981;SDS011;7065;50.880;5.502;2023-03-25T01:16:42;3.17;;;1.40;;
13981;SDS011;7065;50.880;5.502;2023-03-25T01:19:08;3.55;;;1.13;;
13981;SDS011;7065;50.880;5.502;2023-03-25T01:21:34;2.05;;;0.80;;
13981;SDS011;7065;50.880;5.502;2023-03-25T01:24:04;3.05;;;1.48;;
13981;SDS011;7065;50.880;5.502;2023-03-25T01:26:32;2.90;;;1.02;;
13981;SDS011;7065;50.880;5.502;2023-03-25T01:28:58;2.95;;;1.10;;
13981;SDS011;7065;50.880;5.502;2023-03-25T01:31:24;2.15;;;1.10;;
13981;SDS011;7065;50.880;5.502;2023-03-25T01:33:54;3.05;;;1.25;;
13981;SDS011;7065;50.880;5.502;2023-03-25T01:36:23;2.45;;;1.33;;
13981;SDS011;7065;50.880;5.502;2023-03-25T01:38:49;3.03;;;1.20;;
13981;SDS011;7065;50.880;5.502;2023-03-25T01:41:15;3.42;;;1.27;;
13981;SDS011;7065;50.880;5.502;2023-03-25T01:43:41;4.82;;;1.45;;
13981;SDS011;7065;50.880;5.502;2023-03-25T01:46:24;3.60;;;1.40;;
13981;SDS011;7065;50.880;5.502;2023-03-25T01:48:50;1.98;;;1.40;;
13981;SDS011;7065;50.880;5.502;2023-03-25T01:51:17;4.90;;;1.75;;
13981;SDS011;7065;50.880;5.502;2023-03-25T01:53:49;5.85;;;1.70;;
13981;SDS011;7065;50.880;5.502;2023-03-25T01:56:18;5.72;;;1.65;;
13981;SDS011;7065;50.880;5.502;2023-03-25T01:58:48;3.92;;;1.42;;
13981;SDS011;7065;50.880;5.502;2023-03-25T02:01:16;3.40;;;1.80;;
13981;SDS011;7065;50.880;5.502;2023-03-25T02:03:46;5.47;;;1.50;;
13981;SDS011;7065;50.880;5.502;2023-03-25T02:06:18;3.67;;;1.80;;
13981;SDS011;7065;50.880;5.502;2023-03-25T02:08:57;5.13;;;1.70;;
13981;SDS011;7065;50.880;5.502;2023-03-25T02:11:25;5.78;;;1.52;;
13981;SDS011;7065;50.880;5.502;2023-03-25T02:13:53;3.63;;;1.70;;
13981;SDS011;7065;50.880;5.502;2023-03-25T02:18:59;5.60;;;1.70;;
13981;SDS011;7065;50.880;5.502;2023-03-25T02:39:23;5.75;;;1.67;;
13981;SDS011;7065;50.880;5.502;2023-03-25T02:42:08;5.80;;;2.00;;
13981;SDS011;7065;50.880;5.502;2023-03-25T02:45:02;4.20;;;1.60;;
13981;SDS011;7065;50.880;5.502;2023-03-25T02:47:41;3.25;;;1.50;;
13981;SDS011;7065;50.880;5.502;2023-03-25T02:50:16;4.25;;;1.17;;
13981;SDS011;7065;50.880;5.502;2023-03-25T02:52:58;4.07;;;1.40;;
13981;SDS011;7065;50.880;5.502;2023-03-25T02:55:27;4.07;;;1.38;;
13981;SDS011;7065;50.880;5.502;2023-03-25T02:57:57;5.22;;;1.13;;
13981;SDS011;7065;50.880;5.502;2023-03-25T03:00:28;4.78;;;1.40;;
13981;SDS011;7065;50.880;5.502;2023-03-25T03:10:36;6.93;;;1.35;;
13981;SDS011;7065;50.880;5.502;2023-03-25T03:18:21;4.95;;;1.20;;
13981;SDS011;7065;50.880;5.502;2023-03-25T03:31:57;4.70;;;1.10;;
13981;SDS011;7065;50.880;5.502;2023-03-25T03:34:46;4.63;;;1.83;;
13981;SDS011;7065;50.880;5.502;2023-03-25T03:37:17;3.83;;;1.67;;
13981;SDS011;7065;50.880;5.502;2023-03-25T03:39:51;4.10;;;1.27;;
13981;SDS011;7065;50.880;5.502;2023-03-25T03:42:26;2.00;;;1.10;;
13981;SDS011;7065;50.880;5.502;2023-03-25T03:44:56;7.28;;;1.40;;
13981;SDS011;7065;50.880;5.502;2023-03-25T03:47:28;6.15;;;1.58;;
13981;SDS011;7065;50.880;5.502;2023-03-25T03:50:02;3.50;;;1.20;;
13981;SDS011;7065;50.880;5.502;2023-03-25T03:52:36;8.07;;;1.40;;
13981;SDS011;7065;50.880;5.502;2023-03-25T03:57:44;4.13;;;1.50;;
13981;SDS011;7065;50.880;5.502;2023-03-25T04:02:49;4.10;;;1.33;;
13981;SDS011;7065;50.880;5.502;2023-03-25T04:05:39;6.82;;;1.65;;
13981;SDS011;7065;50.880;5.502;2023-03-25T04:08:54;5.25;;;1.45;;
13981;SDS011;7065;50.880;5.502;2023-03-25T04:11:12;5.10;;;1.30;;
13981;SDS011;7065;50.880;5.502;2023-03-25T04:13:43;5.40;;;1.58;;
13981;SDS011;7065;50.880;5.502;2023-03-25T04:16:10;6.82;;;1.40;;
13981;SDS011;7065;50.880;5.502;2023-03-25T04:18:37;6.40;;;1.17;;
13981;SDS011;7065;50.880;5.502;2023-03-25T04:21:03;6.50;;;1.65;;
13981;SDS011;7065;50.880;5.502;2023-03-25T04:23:29;4.05;;;1.42;;
13981;SDS011;7065;50.880;5.502;2023-03-25T04:25:55;5.15;;;1.65;;
13981;SDS011;7065;50.880;5.502;2023-03-25T04:28:22;7.13;;;1.88;;
13981;SDS011;7065;50.880;5.502;2023-03-25T04:30:49;3.10;;;1.40;;
13981;SDS011;7065;50.880;5.502;2023-03-25T04:33:23;4.22;;;1.60;;
13981;SDS011;7065;50.880;5.502;2023-03-25T04:35:49;6.75;;;1.40;;
13981;SDS011;7065;50.880;5.502;2023-03-25T04:38:18;8.07;;;2.00;;
13981;SDS011;7065;50.880;5.502;2023-03-25T04:40:45;6.57;;;1.50;;
13981;SDS011;7065;50.880;5.502;2023-03-25T04:43:12;9.18;;;2.55;;
13981;SDS011;7065;50.880;5.502;2023-03-25T04:45:39;3.55;;;1.30;;
13981;SDS011;7065;50.880;5.502;2023-03-25T04:48:07;5.55;;;1.48;;
13981;SDS011;7065;50.880;5.502;2023-03-25T04:50:44;8.70;;;1.98;;
13981;SDS011;7065;50.880;5.502;2023-03-25T04:53:10;7.70;;;1.90;;
13981;SDS011;7065;50.880;5.502;2023-03-25T04:55:36;7.05;;;1.70;;
13981;SDS011;7065;50.880;5.502;2023-03-25T04:58:01;4.57;;;1.45;;
13981;SDS011;7065;50.880;5.502;2023-03-25T05:00:27;9.88;;;1.90;;
13981;SDS011;7065;50.880;5.502;2023-03-25T05:02:54;9.20;;;2.30;;
13981;SDS011;7065;50.880;5.502;2023-03-25T05:05:21;8.85;;;2.08;;
13981;SDS011;7065;50.880;5.502;2023-03-25T05:07:51;8.02;;;2.20;;
13981;SDS011;7065;50.880;5.502;2023-03-25T05:10:19;6.55;;;1.90;;
13981;SDS011;7065;50.880;5.502;2023-03-25T05:12:48;9.75;;;2.10;;
13981;SDS011;7065;50.880;5.502;2023-03-25T05:15:15;9.80;;;2.28;;
13981;SDS011;7065;50.880;5.502;2023-03-25T05:17:41;5.78;;;1.73;;
13981;SDS011;7065;50.880;5.502;2023-03-25T05:20:08;7.00;;;2.15;;
13981;SDS011;7065;50.880;5.502;2023-03-25T05:22:35;11.05;;;2.10;;
13981;SDS011;7065;50.880;5.502;2023-03-25T05:25:02;10.93;;;2.10;;
13981;SDS011;7065;50.880;5.502;2023-03-25T05:27:30;9.05;;;2.20;;
13981;SDS011;7065;50.880;5.502;2023-03-25T05:29:56;12.98;;;2.38;;
13981;SDS011;7065;50.880;5.502;2023-03-25T05:32:23;6.93;;;2.03;;
13981;SDS011;7065;50.880;5.502;2023-03-25T05:34:50;8.98;;;1.92;;
13981;SDS011;7065;50.880;5.502;2023-03-25T05:37:17;8.25;;;1.90;;
13981;SDS011;7065;50.880;5.502;2023-03-25T05:39:43;7.30;;;2.15;;
13981;SDS011;7065;50.880;5.502;2023-03-25T05:42:10;7.07;;;1.63;;
13981;SDS011;7065;50.880;5.502;2023-03-25T05:44:35;9.68;;;1.83;;
13981;SDS011;7065;50.880;5.502;2023-03-25T05:47:02;5.43;;;1.75;;
13981;SDS011;7065;50.880;5.502;2023-03-25T05:49:28;4.75;;;1.75;;
13981;SDS011;7065;50.880;5.502;2023-03-25T05:51:55;7.28;;;1.77;;
13981;SDS011;7065;50.880;5.502;2023-03-25T05:54:21;6.63;;;1.95;;
13981;SDS011;7065;50.880;5.502;2023-03-25T05:56:48;6.80;;;1.70;;
13981;SDS011;7065;50.880;5.502;2023-03-25T05:59:15;7.40;;;1.83;;
13981;SDS011;7065;50.880;5.502;2023-03-25T06:01:41;9.73;;;1.95;;
13981;SDS011;7065;50.880;5.502;2023-03-25T06:04:09;7.43;;;2.20;;
13981;SDS011;7065;50.880;5.502;2023-03-25T06:06:36;4.55;;;1.67;;
13981;SDS011;7065;50.880;5.502;2023-03-25T06:09:04;8.20;;;1.65;;
13981;SDS011;7065;50.880;5.502;2023-03-25T06:11:31;6.32;;;1.95;;
13981;SDS011;7065;50.880;5.502;2023-03-25T06:14:02;6.35;;;1.95;;
13981;SDS011;7065;50.880;5.502;2023-03-25T06:16:29;5.45;;;1.75;;
13981;SDS011;7065;50.880;5.502;2023-03-25T06:18:56;8.52;;;2.55;;
13981;SDS011;7065;50.880;5.502;2023-03-25T06:21:24;6.68;;;2.10;;
13981;SDS011;7065;50.880;5.502;2023-03-25T06:23:51;10.75;;;2.22;;
13981;SDS011;7065;50.880;5.502;2023-03-25T06:26:18;9.65;;;2.25;;
13981;SDS011;7065;50.880;5.502;2023-03-25T06:28:46;9.38;;;2.20;;
13981;SDS011;7065;50.880;5.502;2023-03-25T06:31:16;5.20;;;1.95;;
13981;SDS011;7065;50.880;5.502;2023-03-25T06:33:45;6.53;;;1.85;;
13981;SDS011;7065;50.880;5.502;2023-03-25T06:36:12;7.35;;;2.50;;
13981;SDS011;7065;50.880;5.502;2023-03-25T06:38:42;6.90;;;2.22;;
13981;SDS011;7065;50.880;5.502;2023-03-25T06:41:09;6.60;;;2.13;;
13981;SDS011;7065;50.880;5.502;2023-03-25T06:43:35;11.45;;;2.38;;
13981;SDS011;7065;50.880;5.502;2023-03-25T06:46:02;6.97;;;1.63;;
13981;SDS011;7065;50.880;5.502;2023-03-25T06:48:28;12.73;;;2.40;;
13981;SDS011;7065;50.880;5.502;2023-03-25T06:50:54;9.43;;;2.65;;
13981;SDS011;7065;50.880;5.502;2023-03-25T06:53:20;10.32;;;2.15;;
13981;SDS011;7065;50.880;5.502;2023-03-25T06:55:46;11.00;;;2.53;;
13981;SDS011;7065;50.880;5.502;2023-03-25T06:58:12;8.30;;;2.50;;
13981;SDS011;7065;50.880;5.502;2023-03-25T07:00:38;6.82;;;2.53;;
13981;SDS011;7065;50.880;5.502;2023-03-25T07:03:03;9.63;;;2.13;;
13981;SDS011;7065;50.880;5.502;2023-03-25T07:05:29;9.30;;;2.17;;
13981;SDS011;7065;50.880;5.502;2023-03-25T07:07:58;9.98;;;2.28;;
13981;SDS011;7065;50.880;5.502;2023-03-25T07:10:24;10.60;;;2.05;;
13981;SDS011;7065;50.880;5.502;2023-03-25T07:12:50;5.13;;;1.80;;
13981;SDS011;7065;50.880;5.502;2023-03-25T07:15:16;10.77;;;2.65;;
13981;SDS011;7065;50.880;5.502;2023-03-25T07:17:42;10.30;;;2.30;;
13981;SDS011;7065;50.880;5.502;2023-03-25T07:20:08;9.57;;;2.00;;
13981;SDS011;7065;50.880;5.502;2023-03-25T07:22:34;7.45;;;2.03;;
13981;SDS011;7065;50.880;5.502;2023-03-25T07:25:00;7.25;;;2.03;;
13981;SDS011;7065;50.880;5.502;2023-03-25T07:27:26;6.43;;;1.85;;
13981;SDS011;7065;50.880;5.502;2023-03-25T07:29:52;4.63;;;1.75;;
13981;SDS011;7065;50.880;5.502;2023-03-25T07:32:18;5.65;;;1.60;;
13981;SDS011;7065;50.880;5.502;2023-03-25T07:34:43;5.20;;;2.30;;
13981;SDS011;7065;50.880;5.502;2023-03-25T07:37:09;7.90;;;1.80;;
13981;SDS011;7065;50.880;5.502;2023-03-25T07:39:35;7.60;;;1.98;;
13981;SDS011;7065;50.880;5.502;2023-03-25T07:42:00;13.02;;;1.95;;
13981;SDS011;7065;50.880;5.502;2023-03-25T07:44:26;7.05;;;2.13;;
13981;SDS011;7065;50.880;5.502;2023-03-25T07:46:52;11.52;;;2.40;;
13981;SDS011;7065;50.880;5.502;2023-03-25T07:49:18;10.38;;;2.88;;
13981;SDS011;7065;50.880;5.502;2023-03-25T07:51:43;9.35;;;2.33;;
13981;SDS011;7065;50.880;5.502;2023-03-25T07:54:10;8.32;;;2.25;;
13981;SDS011;7065;50.880;5.502;2023-03-25T07:56:36;7.68;;;1.90;;
13981;SDS011;7065;50.880;5.502;2023-03-25T07:59:02;5.60;;;1.85;;
13981;SDS011;7065;50.880;5.502;2023-03-25T08:01:29;9.05;;;2.03;;
13981;SDS011;7065;50.880;5.502;2023-03-25T08:03:55;9.68;;;1.95;;
13981;SDS011;7065;50.880;5.502;2023-03-25T08:06:22;20.35;;;2.67;;
13981;SDS011;7065;50.880;5.502;2023-03-25T08:08:48;12.85;;;2.33;;
13981;SDS011;7065;50.880;5.502;2023-03-25T08:11:13;10.82;;;2.47;;
13981;SDS011;7065;50.880;5.502;2023-03-25T08:13:39;9.82;;;2.17;;
13981;SDS011;7065;50.880;5.502;2023-03-25T08:16:11;9.95;;;2.38;;
13981;SDS011;7065;50.880;5.502;2023-03-25T08:18:38;7.53;;;2.65;;
13981;SDS011;7065;50.880;5.502;2023-03-25T08:21:04;11.77;;;2.70;;
13981;SDS011;7065;50.880;5.502;2023-03-25T08:23:30;6.50;;;1.92;;
13981;SDS011;7065;50.880;5.502;2023-03-25T08:26:00;9.30;;;2.53;;
13981;SDS011;7065;50.880;5.502;2023-03-25T08:28:27;12.07;;;2.42;;
13981;SDS011;7065;50.880;5.502;2023-03-25T08:30:53;7.80;;;2.08;;
13981;SDS011;7065;50.880;5.502;2023-03-25T08:33:23;13.05;;;2.42;;
13981;SDS011;7065;50.880;5.502;2023-03-25T08:36:08;8.40;;;1.95;;
13981;SDS011;7065;50.880;5.502;2023-03-25T08:38:38;11.50;;;3.20;;
13981;SDS011;7065;50.880;5.502;2023-03-25T08:41:04;11.18;;;2.92;;
13981;SDS011;7065;50.880;5.502;2023-03-25T08:43:30;7.88;;;2.13;;
13981;SDS011;7065;50.880;5.502;2023-03-25T08:45:56;13.18;;;2.83;;
13981;SDS011;7065;50.880;5.502;2023-03-25T08:48:22;9.88;;;2.45;;
13981;SDS011;7065;50.880;5.502;2023-03-25T08:50:48;9.18;;;2.40;;
13981;SDS011;7065;50.880;5.502;2023-03-25T08:53:14;12.43;;;2.83;;
13981;SDS011;7065;50.880;5.502;2023-03-25T08:55:40;14.05;;;2.60;;
13981;SDS011;7065;50.880;5.502;2023-03-25T08:58:06;8.80;;;2.38;;
13981;SDS011;7065;50.880;5.502;2023-03-25T09:00:32;11.98;;;2.83;;
13981;SDS011;7065;50.880;5.502;2023-03-25T09:03:00;11.40;;;3.40;;
13981;SDS011;7065;50.880;5.502;2023-03-25T09:05:26;9.82;;;2.40;;
13981;SDS011;7065;50.880;5.502;2023-03-25T09:07:52;8.82;;;2.22;;
13981;SDS011;7065;50.880;5.502;2023-03-25T09:10:18;10.85;;;2.80;;
13981;SDS011;7065;50.880;5.502;2023-03-25T09:12:44;11.30;;;2.95;;
13981;SDS011;7065;50.880;5.502;2023-03-25T09:15:10;10.68;;;2.60;;
13981;SDS011;7065;50.880;5.502;2023-03-25T09:17:37;15.77;;;3.05;;
13981;SDS011;7065;50.880;5.502;2023-03-25T09:20:04;12.85;;;2.83;;
13981;SDS011;7065;50.880;5.502;2023-03-25T09:22:36;13.60;;;2.80;;
13981;SDS011;7065;50.880;5.502;2023-03-25T09:25:03;7.72;;;2.08;;
13981;SDS011;7065;50.880;5.502;2023-03-25T09:27:30;12.75;;;3.25;;
13981;SDS011;7065;50.880;5.502;2023-03-25T09:29:56;13.40;;;3.10;;
13981;SDS011;7065;50.880;5.502;2023-03-25T09:32:22;12.32;;;3.20;;
13981;SDS011;7065;50.880;5.502;2023-03-25T09:34:48;13.63;;;3.53;;
13981;SDS011;7065;50.880;5.502;2023-03-25T09:37:14;11.20;;;3.15;;
13981;SDS011;7065;50.880;5.502;2023-03-25T09:39:39;10.85;;;3.03;;
13981;SDS011;7065;50.880;5.502;2023-03-25T09:47:47;5.68;;;2.15;;
13981;SDS011;7065;50.880;5.502;2023-03-25T09:50:25;7.35;;;2.38;;
13981;SDS011;7065;50.880;5.502;2023-03-25T09:52:56;7.45;;;2.50;;
13981;SDS011;7065;50.880;5.502;2023-03-25T09:55:31;7.10;;;2.40;;
13981;SDS011;7065;50.880;5.502;2023-03-25T09:58:03;7.82;;;2.35;;
13981;SDS011;7065;50.880;5.502;2023-03-25T10:00:50;11.00;;;2.90;;
13981;SDS011;7065;50.880;5.502;2023-03-25T10:03:34;12.07;;;2.47;;
13981;SDS011;7065;50.880;5.502;2023-03-25T10:06:17;8.43;;;2.95;;
13981;SDS011;7065;50.880;5.502;2023-03-25T10:11:35;11.55;;;3.05;;
13981;SDS011;7065;50.880;5.502;2023-03-25T10:14:26;7.72;;;2.47;;
13981;SDS011;7065;50.880;5.502;2023-03-25T10:20:11;9.52;;;2.67;;
13981;SDS011;7065;50.880;5.502;2023-03-25T10:25:38;13.25;;;3.03;;
13981;SDS011;7065;50.880;5.502;2023-03-25T10:28:11;9.85;;;3.03;;
13981;SDS011;7065;50.880;5.502;2023-03-25T10:30:45;17.80;;;3.17;;
13981;SDS011;7065;50.880;5.502;2023-03-25T10:36:01;9.20;;;2.95;;
13981;SDS011;7065;50.880;5.502;2023-03-25T10:38:29;10.02;;;2.88;;
13981;SDS011;7065;50.880;5.502;2023-03-25T10:41:15;10.20;;;3.10;;
13981;SDS011;7065;50.880;5.502;2023-03-25T10:43:44;16.02;;;3.33;;
13981;SDS011;7065;50.880;5.502;2023-03-25T10:48:55;8.75;;;2.20;;
13981;SDS011;7065;50.880;5.502;2023-03-25T10:51:22;11.73;;;2.92;;
13981;SDS011;7065;50.880;5.502;2023-03-25T10:53:53;12.48;;;2.88;;
13981;SDS011;7065;50.880;5.502;2023-03-25T10:56:20;7.75;;;2.67;;
13981;SDS011;7065;50.880;5.502;2023-03-25T10:58:54;9.00;;;2.70;;
13981;SDS011;7065;50.880;5.502;2023-03-25T11:01:37;11.70;;;2.70;;
13981;SDS011;7065;50.880;5.502;2023-03-25T11:04:09;13.55;;;2.88;;
13981;SDS011;7065;50.880;5.502;2023-03-25T11:06:47;12.20;;;2.88;;
13981;SDS011;7065;50.880;5.502;2023-03-25T11:09:22;10.73;;;2.45;;
13981;SDS011;7065;50.880;5.502;2023-03-25T11:11:49;7.97;;;2.85;;
13981;SDS011;7065;50.880;5.502;2023-03-25T11:14:21;10.13;;;3.05;;
13981;SDS011;7065;50.880;5.502;2023-03-25T11:17:01;10.20;;;2.80;;
13981;SDS011;7065;50.880;5.502;2023-03-25T11:19:38;6.78;;;2.20;;
13981;SDS011;7065;50.880;5.502;2023-03-25T11:24:48;8.35;;;2.55;;
13981;SDS011;7065;50.880;5.502;2023-03-25T11:27:20;11.70;;;2.53;;
13981;SDS011;7065;50.880;5.502;2023-03-25T11:29:59;7.05;;;2.03;;
13981;SDS011;7065;50.880;5.502;2023-03-25T11:32:33;10.10;;;2.80;;
13981;SDS011;7065;50.880;5.502;2023-03-25T11:35:01;8.50;;;2.55;;
13981;SDS011;7065;50.880;5.502;2023-03-25T11:37:31;10.75;;;2.45;;
13981;SDS011;7065;50.880;5.502;2023-03-25T11:40:12;7.20;;;2.10;;
13981;SDS011;7065;50.880;5.502;2023-03-25T11:42:45;11.52;;;2.17;;
13981;SDS011;7065;50.880;5.502;2023-03-25T11:45:20;11.85;;;2.35;;
13981;SDS011;7065;50.880;5.502;2023-03-25T11:47:51;8.60;;;1.98;;
13981;SDS011;7065;50.880;5.502;2023-03-25T11:50:22;9.65;;;2.83;;
13981;SDS011;7065;50.880;5.502;2023-03-25T11:52:52;7.55;;;2.08;;
13981;SDS011;7065;50.880;5.502;2023-03-25T11:55:25;9.40;;;2.65;;
13981;SDS011;7065;50.880;5.502;2023-03-25T11:57:53;10.57;;;2.70;;
13981;SDS011;7065;50.880;5.502;2023-03-25T12:05:55;11.27;;;2.08;;
13981;SDS011;7065;50.880;5.502;2023-03-25T12:08:29;8.52;;;1.92;;
13981;SDS011;7065;50.880;5.502;2023-03-25T12:11:17;6.95;;;2.15;;
13981;SDS011;7065;50.880;5.502;2023-03-25T12:14:36;7.63;;;1.80;;
13981;SDS011;7065;50.880;5.502;2023-03-25T12:19:11;8.20;;;2.03;;
13981;SDS011;7065;50.880;5.502;2023-03-25T12:40:54;9.65;;;2.55;;
13981;SDS011;7065;50.880;5.502;2023-03-25T12:43:42;6.80;;;2.47;;
13981;SDS011;7065;50.880;5.502;2023-03-25T12:46:27;12.68;;;2.42;;
13981;SDS011;7065;50.880;5.502;2023-03-25T12:58:31;11.18;;;2.40;;
13981;SDS011;7065;50.880;5.502;2023-03-25T13:03:48;9.30;;;2.20;;
13981;SDS011;7065;50.880;5.502;2023-03-25T13:06:31;11.93;;;2.88;;
13981;SDS011;7065;50.880;5.502;2023-03-25T13:09:20;10.13;;;2.38;;
13981;SDS011;7065;50.880;5.502;2023-03-25T13:12:09;7.38;;;1.88;;
13981;SDS011;7065;50.880;5.502;2023-03-25T13:14:55;9.30;;;2.05;;
13981;SDS011;7065;50.880;5.502;2023-03-25T13:17:43;10.57;;;3.13;;
13981;SDS011;7065;50.880;5.502;2023-03-25T13:20:23;10.02;;;2.42;;
13981;SDS011;7065;50.880;5.502;2023-03-25T13:22:53;12.05;;;2.83;;
13981;SDS011;7065;50.880;5.502;2023-03-25T13:25:25;8.00;;;2.20;;
13981;SDS011;7065;50.880;5.502;2023-03-25T13:27:56;9.60;;;2.28;;
13981;SDS011;7065;50.880;5.502;2023-03-25T13:30:36;11.73;;;2.40;;
13981;SDS011;7065;50.880;5.502;2023-03-25T13:33:06;8.60;;;2.08;;
13981;SDS011;7065;50.880;5.502;2023-03-25T13:35:49;7.03;;;1.75;;
13981;SDS011;7065;50.880;5.502;2023-03-25T13:38:37;10.82;;;2.10;;
13981;SDS011;7065;50.880;5.502;2023-03-25T13:41:33;9.23;;;2.08;;
13981;SDS011;7065;50.880;5.502;2023-03-25T13:44:06;9.07;;;2.15;;
13981;SDS011;7065;50.880;5.502;2023-03-25T13:46:36;10.40;;;2.25;;
13981;SDS011;7065;50.880;5.502;2023-03-25T13:51:50;9.65;;;2.60;;
13981;SDS011;7065;50.880;5.502;2023-03-25T14:13:14;13.82;;;3.10;;
13981;SDS011;7065;50.880;5.502;2023-03-25T14:15:54;9.02;;;2.70;;
13981;SDS011;7065;50.880;5.502;2023-03-25T14:18:29;12.75;;;2.67;;
13981;SDS011;7065;50.880;5.502;2023-03-25T14:20:56;11.15;;;2.40;;
13981;SDS011;7065;50.880;5.502;2023-03-25T14:23:35;15.48;;;2.83;;
13981;SDS011;7065;50.880;5.502;2023-03-25T14:26:01;11.95;;;2.75;;
13981;SDS011;7065;50.880;5.502;2023-03-25T14:28:41;14.48;;;3.15;;
13981;SDS011;7065;50.880;5.502;2023-03-25T14:39:48;9.40;;;2.80;;
13981;SDS011;7065;50.880;5.502;2023-03-25T14:44:32;11.70;;;2.67;;
13981;SDS011;7065;50.880;5.502;2023-03-25T14:52:48;9.02;;;2.53;;
13981;SDS011;7065;50.880;5.502;2023-03-25T14:55:20;11.02;;;2.35;;
13981;SDS011;7065;50.880;5.502;2023-03-25T14:57:50;8.32;;;2.05;;
13981;SDS011;7065;50.880;5.502;2023-03-25T15:00:24;9.43;;;2.33;;
13981;SDS011;7065;50.880;5.502;2023-03-25T15:02:58;9.93;;;2.45;;
13981;SDS011;7065;50.880;5.502;2023-03-25T15:05:27;6.75;;;1.98;;
13981;SDS011;7065;50.880;5.502;2023-03-25T15:12:54;7.65;;;2.20;;
13981;SDS011;7065;50.880;5.502;2023-03-25T15:23:43;9.55;;;2.03;;
13981;SDS011;7065;50.880;5.502;2023-03-25T15:42:48;7.43;;;1.83;;
13981;SDS011;7065;50.880;5.502;2023-03-25T15:57:06;5.18;;;1.50;;
13981;SDS011;7065;50.880;5.502;2023-03-25T16:00:22;4.32;;;1.50;;
13981;SDS011;7065;50.880;5.502;2023-03-25T16:03:05;3.63;;;1.60;;
13981;SDS011;7065;50.880;5.502;2023-03-25T16:05:42;8.80;;;1.75;;
13981;SDS011;7065;50.880;5.502;2023-03-25T16:13:44;4.68;;;1.60;;
13981;SDS011;7065;50.880;5.502;2023-03-25T16:16:10;9.32;;;1.67;;
13981;SDS011;7065;50.880;5.502;2023-03-25T16:18:38;6.97;;;1.63;;
13981;SDS011;7065;50.880;5.502;2023-03-25T16:21:05;6.85;;;1.70;;
13981;SDS011;7065;50.880;5.502;2023-03-25T16:23:32;5.22;;;1.52;;
13981;SDS011;7065;50.880;5.502;2023-03-25T16:26:00;4.00;;;1.40;;
13981;SDS011;7065;50.880;5.502;2023-03-25T16:28:30;3.30;;;1.15;;
13981;SDS011;7065;50.880;5.502;2023-03-25T16:31:03;8.73;;;1.60;;
13981;SDS011;7065;50.880;5.502;2023-03-25T16:33:30;10.02;;;1.92;;
13981;SDS011;7065;50.880;5.502;2023-03-25T16:36:03;4.82;;;1.70;;
13981;SDS011;7065;50.880;5.502;2023-03-25T16:38:38;5.68;;;1.50;;
13981;SDS011;7065;50.880;5.502;2023-03-25T16:41:06;7.53;;;1.58;;
13981;SDS011;7065;50.880;5.502;2023-03-25T16:43:36;8.90;;;2.08;;
13981;SDS011;7065;50.880;5.502;2023-03-25T16:46:02;7.72;;;1.80;;
13981;SDS011;7065;50.880;5.502;2023-03-25T16:51:14;8.50;;;1.80;;
13981;SDS011;7065;50.880;5.502;2023-03-25T16:53:57;7.10;;;2.03;;
13981;SDS011;7065;50.880;5.502;2023-03-25T16:56:29;7.93;;;2.30;;
13981;SDS011;7065;50.880;5.502;2023-03-25T17:01:40;7.82;;;2.72;;
13981;SDS011;7065;50.880;5.502;2023-03-25T17:04:11;10.75;;;2.42;;
13981;SDS011;7065;50.880;5.502;2023-03-25T17:06:47;6.93;;;2.13;;
13981;SDS011;7065;50.880;5.502;2023-03-25T17:09:17;7.80;;;2.13;;
13981;SDS011;7065;50.880;5.502;2023-03-25T17:11:45;9.60;;;2.15;;
13981;SDS011;7065;50.880;5.502;2023-03-25T17:14:19;5.30;;;1.98;;
13981;SDS011;7065;50.880;5.502;2023-03-25T17:16:48;9.68;;;2.13;;
13981;SDS011;7065;50.880;5.502;2023-03-25T17:19:16;7.07;;;2.58;;
13981;SDS011;7065;50.880;5.502;2023-03-25T17:24:54;9.85;;;2.35;;
13981;SDS011;7065;50.880;5.502;2023-03-25T17:27:26;8.70;;;2.22;;
13981;SDS011;7065;50.880;5.502;2023-03-25T17:29:59;10.10;;;2.42;;
13981;SDS011;7065;50.880;5.502;2023-03-25T17:32:45;12.85;;;2.90;;
13981;SDS011;7065;50.880;5.502;2023-03-25T17:37:50;15.00;;;3.05;;
13981;SDS011;7065;50.880;5.502;2023-03-25T17:40:20;10.82;;;2.63;;
13981;SDS011;7065;50.880;5.502;2023-03-25T17:42:53;9.52;;;2.78;;
13981;SDS011;7065;50.880;5.502;2023-03-25T17:45:20;11.45;;;2.78;;
13981;SDS011;7065;50.880;5.502;2023-03-25T17:47:48;8.18;;;1.90;;
13981;SDS011;7065;50.880;5.502;2023-03-25T17:50:16;11.70;;;3.17;;
13981;SDS011;7065;50.880;5.502;2023-03-25T17:52:43;9.00;;;2.53;;
13981;SDS011;7065;50.880;5.502;2023-03-25T17:55:09;18.05;;;3.15;;
13981;SDS011;7065;50.880;5.502;2023-03-25T17:57:35;12.70;;;2.75;;
13981;SDS011;7065;50.880;5.502;2023-03-25T18:00:03;11.90;;;3.13;;
13981;SDS011;7065;50.880;5.502;2023-03-25T18:02:32;15.85;;;3.38;;
13981;SDS011;7065;50.880;5.502;2023-03-25T18:04:58;12.50;;;2.83;;
13981;SDS011;7065;50.880;5.502;2023-03-25T18:07:25;10.18;;;3.20;;
13981;SDS011;7065;50.880;5.502;2023-03-25T18:09:51;12.55;;;2.90;;
13981;SDS011;7065;50.880;5.502;2023-03-25T18:12:18;12.40;;;3.10;;
13981;SDS011;7065;50.880;5.502;2023-03-25T18:14:44;11.25;;;3.22;;
13981;SDS011;7065;50.880;5.502;2023-03-25T18:17:13;13.50;;;2.75;;
13981;SDS011;7065;50.880;5.502;2023-03-25T18:19:38;13.48;;;3.30;;
13981;SDS011;7065;50.880;5.502;2023-03-25T18:22:04;16.02;;;3.53;;
13981;SDS011;7065;50.880;5.502;2023-03-25T18:24:31;11.65;;;3.13;;
13981;SDS011;7065;50.880;5.502;2023-03-25T18:26:58;11.38;;;2.95;;
13981;SDS011;7065;50.880;5.502;2023-03-25T18:29:24;13.45;;;3.20;;
13981;SDS011;7065;50.880;5.502;2023-03-25T18:31:52;14.30;;;3.45;;
13981;SDS011;7065;50.880;5.502;2023-03-25T18:34:19;13.18;;;2.90;;
13981;SDS011;7065;50.880;5.502;2023-03-25T18:36:47;7.90;;;2.75;;
13981;SDS011;7065;50.880;5.502;2023-03-25T18:39:17;15.13;;;3.33;;
13981;SDS011;7065;50.880;5.502;2023-03-25T18:41:46;14.18;;;3.28;;
13981;SDS011;7065;50.880;5.502;2023-03-25T18:44:12;12.38;;;3.72;;